createdAt,value
2017-07-14T00:01:48.537Z,86.50
2017-07-14T00:04:18.972Z,88.50
2017-07-14T00:06:49.426Z,87.60
2017-07-14T00:09:19.128Z,87.60
2017-07-14T00:11:48.815Z,88.30
2017-07-14T00:14:19.252Z,89.10
2017-07-14T00:16:48.927Z,89.10
2017-07-14T00:19:18.591Z,89.60
2017-07-14T00:21:48.290Z,90.10
2017-07-14T00:24:17.939Z,89.60
2017-07-14T00:26:47.667Z,90.00
2017-07-14T00:29:17.906Z,89.30
2017-07-14T00:31:48.357Z,89.40
2017-07-14T00:34:18.010Z,89.20
2017-07-14T00:36:47.715Z,89.10
2017-07-14T00:39:17.415Z,89.40
2017-07-14T00:41:47.075Z,89.70
2017-07-14T00:44:16.761Z,89.80
2017-07-14T00:46:46.433Z,90.20
2017-07-14T00:49:16.134Z,90.20
2017-07-14T00:51:45.608Z,90.30
2017-07-14T00:54:16.051Z,90.90
2017-07-14T00:56:46.465Z,90.80
2017-07-14T00:59:16.906Z,91.10
2017-07-14T01:01:46.576Z,90.80
2017-07-14T01:04:16.284Z,90.70
2017-07-14T01:06:45.942Z,90.30
2017-07-14T01:09:15.619Z,90.80
2017-07-14T01:11:46.055Z,90.70
2017-07-14T01:14:15.728Z,90.70
2017-07-14T01:16:45.193Z,90.70
2017-07-14T01:19:14.866Z,91.10
2017-07-14T01:21:45.322Z,91.00
2017-07-14T01:24:15.011Z,91.00
2017-07-14T01:26:45.449Z,91.20
2017-07-14T01:29:15.132Z,91.20
2017-07-14T01:31:45.577Z,91.60
2017-07-14T01:34:16.048Z,92.10
2017-07-14T01:36:45.729Z,92.10
2017-07-14T01:39:14.721Z,92.10
2017-07-14T01:41:43.497Z,92.30
2017-07-14T01:44:17.175Z,92.10
2017-07-14T01:46:46.748Z,92.00
2017-07-14T01:49:16.055Z,92.00
2017-07-14T01:51:44.850Z,92.20
2017-07-14T01:54:13.960Z,91.90
2017-07-14T01:56:42.970Z,91.60
2017-07-14T01:59:11.717Z,91.90
2017-07-14T02:01:41.063Z,91.70
2017-07-14T02:04:10.377Z,92.10
2017-07-14T02:06:39.175Z,92.10
2017-07-14T02:09:07.999Z,92.00
2017-07-14T02:11:36.804Z,92.40
2017-07-14T02:14:05.586Z,92.20
2017-07-14T02:16:36.751Z,92.10
2017-07-14T02:19:05.876Z,92.10
2017-07-14T02:21:34.842Z,92.20
2017-07-14T02:24:03.630Z,92.40
2017-07-14T02:26:32.416Z,92.50
2017-07-14T02:29:01.526Z,92.60
2017-07-14T02:31:30.680Z,93.00
2017-07-14T02:33:59.466Z,92.90
2017-07-14T02:36:28.603Z,93.30
2017-07-14T02:38:57.619Z,93.70
2017-07-14T02:41:26.393Z,93.70
2017-07-14T02:43:55.269Z,94.10
2017-07-14T02:46:24.033Z,94.10
2017-07-14T02:48:52.817Z,93.90
2017-07-14T02:51:22.130Z,94.20
2017-07-14T02:53:50.920Z,94.40
2017-07-14T02:56:20.252Z,94.20
2017-07-14T02:58:49.394Z,94.30
2017-07-14T03:01:18.507Z,94.20
2017-07-14T03:03:47.491Z,94.40
2017-07-14T03:06:16.634Z,94.00
2017-07-14T03:08:45.437Z,94.10
2017-07-14T03:11:14.218Z,94.30
2017-07-14T03:13:43.008Z,94.00
2017-07-14T03:16:12.507Z,94.40
2017-07-14T03:18:41.841Z,94.50
2017-07-14T03:21:10.985Z,94.60
2017-07-14T03:23:39.975Z,94.50
2017-07-14T03:26:08.797Z,94.70
2017-07-14T03:28:37.784Z,94.50
2017-07-14T03:31:07.456Z,94.70
2017-07-14T03:33:37.012Z,94.10
2017-07-14T03:36:05.832Z,94.10
2017-07-14T03:38:34.620Z,93.60
2017-07-14T03:41:03.745Z,93.60
2017-07-14T03:43:32.881Z,93.10
2017-07-14T03:46:02.445Z,92.50
2017-07-14T03:48:31.465Z,92.50
2017-07-14T03:51:00.254Z,92.30
2017-07-14T03:53:29.073Z,92.30
2017-07-14T03:55:58.847Z,92.30
2017-07-14T03:58:27.665Z,92.30
2017-07-14T04:00:57.228Z,92.70
2017-07-14T04:03:26.229Z,92.70
2017-07-14T04:05:55.910Z,92.40
2017-07-14T04:08:25.588Z,91.90
2017-07-14T04:10:55.249Z,91.70
2017-07-14T04:13:24.941Z,91.70
2017-07-14T04:15:54.605Z,92.10
2017-07-14T04:18:24.112Z,91.70
2017-07-14T04:20:53.773Z,91.50
2017-07-14T04:23:23.474Z,91.80
2017-07-14T04:25:53.139Z,91.80
2017-07-14T04:28:23.600Z,91.60
2017-07-14T04:30:53.275Z,91.60
2017-07-14T04:33:23.731Z,92.50
2017-07-14T04:35:53.429Z,92.10
2017-07-14T04:38:23.113Z,91.20
2017-07-14T04:40:53.606Z,89.00
2017-07-14T04:43:23.300Z,88.10
2017-07-14T04:45:52.986Z,86.30
2017-07-14T04:48:22.667Z,85.80
2017-07-14T04:50:53.128Z,84.60
2017-07-14T04:53:23.578Z,83.10
2017-07-14T04:55:53.234Z,83.10
2017-07-14T04:58:23.673Z,81.10
2017-07-14T05:00:54.131Z,80.40
2017-07-14T05:03:23.800Z,80.40
2017-07-14T05:05:53.507Z,80.00
2017-07-14T05:08:23.169Z,81.00
2017-07-14T05:10:52.854Z,79.90
2017-07-14T05:13:22.532Z,77.00
2017-07-14T05:15:52.223Z,78.10
2017-07-14T05:18:21.984Z,80.40
2017-07-14T05:20:51.668Z,79.50
2017-07-14T05:23:21.350Z,80.30
2017-07-14T05:25:51.013Z,80.10
2017-07-14T05:28:20.695Z,80.20
2017-07-14T05:30:50.355Z,79.10
2017-07-14T05:33:20.071Z,80.50
2017-07-14T05:35:50.502Z,80.20
2017-07-14T05:38:20.195Z,80.20
2017-07-14T05:40:50.648Z,79.80
2017-07-14T05:43:20.335Z,79.70
2017-07-14T05:45:50.773Z,77.80
2017-07-14T05:48:20.248Z,77.80
2017-07-14T05:50:49.917Z,76.60
2017-07-14T05:53:19.609Z,74.70
2017-07-14T05:55:48.994Z,77.20
2017-07-14T05:58:19.447Z,75.20
2017-07-14T06:00:48.852Z,75.20
2017-07-14T06:03:18.297Z,76.20
2017-07-14T06:05:48.450Z,73.40
2017-07-14T06:08:17.880Z,73.40
2017-07-14T06:10:47.305Z,75.20
2017-07-14T06:13:16.708Z,72.70
2017-07-14T06:15:46.129Z,71.20
2017-07-14T06:18:16.297Z,68.40
2017-07-14T06:20:45.708Z,67.50
2017-07-14T06:23:15.176Z,64.50
2017-07-14T06:25:44.720Z,65.40
2017-07-14T06:28:14.122Z,66.70
2017-07-14T06:30:43.541Z,69.60
2017-07-14T06:33:13.718Z,70.70
2017-07-14T06:35:42.940Z,70.70
2017-07-14T06:38:12.349Z,66.80
2017-07-14T06:40:41.896Z,69.60
2017-07-14T06:43:11.297Z,66.60
2017-07-14T06:45:40.725Z,63.60
2017-07-14T06:48:10.144Z,64.20
2017-07-14T06:50:39.576Z,63.10
2017-07-14T06:53:09.016Z,62.50
2017-07-14T06:55:38.430Z,63.10
2017-07-14T06:58:07.861Z,60.00
2017-07-14T07:00:37.275Z,63.80
2017-07-14T07:03:06.679Z,62.20
2017-07-14T07:05:36.076Z,61.20
2017-07-14T07:08:05.494Z,58.50
2017-07-14T07:10:34.907Z,54.30
2017-07-14T07:13:05.088Z,48.70
2017-07-14T07:15:34.475Z,48.60
2017-07-14T07:18:03.894Z,46.90
2017-07-14T07:20:33.291Z,44.90
2017-07-14T07:23:02.719Z,42.60
2017-07-14T07:25:32.140Z,40.20
2017-07-14T07:28:02.325Z,42.00
2017-07-14T07:30:31.733Z,41.90
2017-07-14T07:33:01.138Z,41.90
2017-07-14T07:35:30.534Z,41.30
2017-07-14T07:37:59.955Z,41.80
2017-07-14T07:40:29.433Z,41.50
2017-07-14T07:42:58.828Z,40.70
2017-07-14T07:45:29.027Z,39.40
2017-07-14T07:48:15.052Z,39.40
2017-07-14T07:50:44.480Z,39.80
2017-07-14T07:53:13.920Z,38.90
2017-07-14T07:55:43.335Z,36.50
2017-07-14T07:58:12.735Z,35.10
2017-07-14T08:00:42.152Z,35.50
2017-07-14T08:03:17.005Z,35.70
2017-07-14T08:05:46.426Z,35.90
2017-07-14T08:08:15.827Z,36.90
2017-07-14T08:10:45.253Z,35.40
2017-07-14T08:13:14.636Z,35.90
2017-07-14T08:15:44.064Z,37.60
2017-07-14T08:18:13.457Z,38.30
2017-07-14T08:20:42.874Z,39.20
2017-07-14T08:23:12.275Z,38.90
2017-07-14T08:25:41.675Z,37.80
2017-07-14T08:28:11.062Z,39.40
2017-07-14T08:30:40.446Z,38.20
2017-07-14T08:33:09.874Z,40.00
2017-07-14T08:35:39.289Z,42.30
2017-07-14T08:38:08.693Z,43.00
2017-07-14T08:40:38.091Z,44.90
2017-07-14T08:43:07.308Z,45.10
2017-07-14T08:45:36.725Z,46.00
2017-07-14T08:48:06.132Z,47.30
2017-07-14T08:50:36.346Z,49.10
2017-07-14T08:53:05.764Z,48.60
2017-07-14T08:55:35.945Z,47.10
2017-07-14T08:58:05.354Z,47.10
2017-07-14T09:00:34.880Z,47.60
2017-07-14T09:03:04.098Z,48.90
2017-07-14T09:05:34.264Z,44.80
2017-07-14T09:08:03.687Z,44.70
2017-07-14T09:10:33.122Z,44.10
2017-07-14T09:13:03.312Z,43.30
2017-07-14T09:15:32.713Z,43.30
2017-07-14T09:18:02.156Z,40.00
2017-07-14T09:20:32.313Z,40.00
2017-07-14T09:23:01.710Z,40.00
2017-07-14T09:25:31.900Z,42.50
2017-07-14T09:28:01.296Z,42.50
2017-07-14T09:30:31.475Z,41.70
2017-07-14T09:33:00.875Z,41.70
2017-07-14T09:35:30.305Z,42.40
2017-07-14T09:37:59.707Z,41.90
2017-07-14T09:40:29.091Z,40.80
2017-07-14T09:42:58.513Z,40.70
2017-07-14T09:45:27.905Z,38.70
2017-07-14T09:47:57.147Z,39.40
2017-07-14T09:50:27.105Z,42.30
2017-07-14T09:52:56.523Z,42.30
2017-07-14T09:55:25.908Z,43.90
2017-07-14T09:57:55.323Z,44.40
2017-07-14T10:00:24.710Z,44.60
2017-07-14T10:02:53.945Z,46.40
2017-07-14T10:05:23.627Z,47.00
2017-07-14T10:07:53.075Z,47.40
2017-07-14T10:10:22.507Z,48.10
2017-07-14T10:12:51.918Z,47.60
2017-07-14T10:15:21.346Z,47.20
2017-07-14T10:17:50.761Z,47.90
2017-07-14T10:20:20.171Z,47.90
2017-07-14T10:22:50.339Z,48.60
2017-07-14T10:25:19.782Z,48.50
2017-07-14T10:27:49.203Z,49.00
2017-07-14T10:30:19.531Z,49.40
2017-07-14T10:32:48.943Z,49.40
2017-07-14T10:35:18.351Z,47.90
2017-07-14T10:37:47.771Z,47.50
2017-07-14T10:40:17.208Z,45.80
2017-07-14T10:42:46.646Z,45.50
2017-07-14T10:45:16.790Z,43.00
2017-07-14T10:47:46.208Z,43.00
2017-07-14T10:50:15.635Z,43.20
2017-07-14T10:52:45.040Z,42.10
2017-07-14T10:55:14.452Z,42.30
2017-07-14T10:57:43.861Z,43.00
2017-07-14T11:00:13.274Z,41.60
2017-07-14T11:02:43.452Z,43.70
2017-07-14T11:05:12.867Z,43.70
2017-07-14T11:07:42.273Z,45.10
2017-07-14T11:10:11.993Z,41.90
2017-07-14T11:12:41.381Z,41.60
2017-07-14T11:15:10.591Z,39.90
2017-07-14T11:17:40.060Z,40.40
2017-07-14T11:20:09.467Z,38.00
2017-07-14T11:22:38.867Z,39.20
2017-07-14T11:25:08.292Z,39.80
2017-07-14T11:27:37.696Z,36.00
2017-07-14T11:30:07.162Z,36.30
2017-07-14T11:32:36.587Z,36.90
2017-07-14T11:35:05.970Z,35.80
2017-07-14T11:37:35.385Z,36.50
2017-07-14T11:40:04.775Z,36.70
2017-07-14T11:42:34.177Z,36.10
2017-07-14T11:45:03.600Z,35.70
2017-07-14T11:47:33.020Z,34.40
2017-07-14T11:50:02.429Z,34.40
2017-07-14T11:52:31.839Z,33.90
2017-07-14T11:55:01.596Z,33.40
2017-07-14T11:57:31.773Z,30.40
2017-07-14T12:00:01.175Z,30.40
2017-07-14T12:02:30.412Z,29.90
2017-07-14T12:05:00.591Z,28.30
2017-07-14T12:07:30.015Z,28.30
2017-07-14T12:09:59.428Z,29.00
2017-07-14T12:12:28.848Z,30.30
2017-07-14T12:14:58.239Z,28.10
2017-07-14T12:17:27.684Z,26.90
2017-07-14T12:19:57.091Z,26.70
2017-07-14T12:22:26.500Z,26.40
2017-07-14T12:24:55.915Z,27.10
2017-07-14T12:27:26.070Z,27.50
2017-07-14T12:29:55.507Z,27.50
2017-07-14T12:32:24.937Z,27.70
2017-07-14T12:34:54.544Z,26.40
2017-07-14T12:37:24.097Z,25.90
2017-07-14T12:39:53.533Z,29.00
2017-07-14T12:42:22.947Z,27.40
2017-07-14T12:44:52.371Z,28.10
2017-07-14T12:47:22.545Z,25.00
2017-07-14T12:49:51.985Z,25.00
2017-07-14T12:52:21.388Z,23.90
2017-07-14T12:54:50.800Z,25.40
2017-07-14T12:57:20.996Z,27.20
2017-07-14T12:59:50.421Z,27.10
2017-07-14T13:02:19.804Z,28.50
2017-07-14T13:04:49.212Z,27.50
2017-07-14T13:07:18.637Z,27.70
2017-07-14T13:09:48.047Z,29.30
2017-07-14T13:12:18.248Z,31.20
2017-07-14T13:14:47.642Z,30.50
2017-07-14T13:17:17.062Z,30.10
2017-07-14T13:19:46.468Z,29.60
2017-07-14T13:22:15.884Z,28.50
2017-07-14T13:24:46.034Z,26.90
2017-07-14T13:27:15.458Z,27.30
2017-07-14T13:29:44.851Z,28.30
2017-07-14T13:32:14.270Z,30.00
2017-07-14T13:34:43.663Z,31.70
2017-07-14T13:37:12.878Z,30.90
2017-07-14T13:39:42.304Z,29.70
2017-07-14T13:42:11.709Z,29.30
2017-07-14T13:44:41.123Z,30.10
2017-07-14T13:47:10.565Z,29.30
2017-07-14T13:49:39.978Z,30.00
2017-07-14T13:52:09.395Z,30.70
2017-07-14T13:54:38.814Z,31.70
2017-07-14T13:57:08.218Z,34.10
2017-07-14T13:59:37.611Z,32.70
2017-07-14T14:02:07.024Z,34.10
2017-07-14T14:04:36.858Z,34.60
2017-07-14T14:07:06.805Z,34.10
2017-07-14T14:09:36.238Z,33.40
2017-07-14T14:12:05.646Z,30.60
2017-07-14T14:14:35.064Z,30.00
2017-07-14T14:17:05.219Z,28.90
2017-07-14T14:19:34.658Z,28.90
2017-07-14T14:22:04.430Z,30.40
2017-07-14T14:24:33.844Z,29.40
2017-07-14T14:27:03.243Z,29.10
2017-07-14T14:29:32.673Z,30.70
2017-07-14T14:32:02.075Z,30.30
2017-07-14T14:34:31.479Z,32.30
2017-07-14T14:37:00.888Z,34.40
2017-07-14T14:39:30.319Z,33.00
2017-07-14T14:42:00.477Z,34.10
2017-07-14T14:44:29.543Z,34.10
2017-07-14T14:46:58.950Z,35.70
2017-07-14T14:49:28.357Z,38.30
2017-07-14T14:51:57.772Z,36.20
2017-07-14T14:54:27.199Z,38.20
2017-07-14T14:56:56.586Z,39.40
2017-07-14T14:59:25.991Z,37.40
2017-07-14T15:01:55.446Z,37.60
2017-07-14T15:04:25.620Z,37.10
2017-07-14T15:06:55.032Z,36.80
2017-07-14T15:09:24.223Z,38.80
2017-07-14T15:11:53.633Z,40.40
2017-07-14T15:14:23.033Z,36.60
2017-07-14T15:16:52.450Z,38.30
2017-07-14T15:19:21.846Z,40.00
2017-07-14T15:21:51.074Z,38.20
2017-07-14T15:24:20.458Z,39.20
2017-07-14T15:26:50.082Z,35.90
2017-07-14T15:29:19.492Z,37.40
2017-07-14T15:31:49.078Z,36.70
2017-07-14T15:34:18.475Z,36.50
2017-07-14T15:36:47.901Z,37.60
2017-07-14T15:39:17.305Z,38.20
2017-07-14T15:41:46.731Z,36.90
2017-07-14T15:44:16.882Z,37.30
2017-07-14T15:46:46.273Z,37.20
2017-07-14T15:49:15.718Z,38.10
2017-07-14T15:51:45.131Z,37.00
2017-07-14T15:54:14.528Z,37.50
2017-07-14T15:56:43.950Z,37.30
2017-07-14T15:59:13.355Z,38.10
2017-07-14T16:01:42.792Z,39.90
2017-07-14T16:04:12.188Z,39.50
2017-07-14T16:06:42.394Z,39.70
2017-07-14T16:09:11.796Z,39.70
2017-07-14T16:11:41.179Z,40.80
2017-07-14T16:14:10.612Z,38.10
2017-07-14T16:16:40.762Z,39.30
2017-07-14T16:19:10.187Z,39.30
2017-07-14T16:21:39.599Z,40.30
2017-07-14T16:24:09.017Z,38.90
2017-07-14T16:26:38.433Z,40.60
2017-07-14T16:29:07.847Z,39.60
2017-07-14T16:31:38.047Z,39.10
2017-07-14T16:34:07.477Z,39.10
2017-07-14T16:36:37.637Z,39.10
2017-07-14T16:39:08.072Z,39.10
2017-07-14T16:41:37.473Z,39.10
2017-07-14T16:44:06.957Z,39.40
2017-07-14T16:46:36.361Z,40.90
2017-07-14T16:49:05.764Z,38.80
2017-07-14T16:51:35.183Z,39.90
2017-07-14T16:54:04.591Z,39.20
2017-07-14T16:56:34.011Z,43.20
2017-07-14T16:59:03.436Z,40.40
2017-07-14T17:01:32.847Z,41.40
2017-07-14T17:04:03.022Z,39.10
2017-07-14T17:06:32.433Z,38.40
2017-07-14T17:09:01.845Z,38.30
2017-07-14T17:11:31.083Z,39.60
2017-07-14T17:14:01.239Z,40.70
2017-07-14T17:16:30.658Z,40.80
2017-07-14T17:19:00.076Z,41.30
2017-07-14T17:21:29.501Z,42.40
2017-07-14T17:23:58.883Z,40.80
2017-07-14T17:26:28.310Z,44.00
2017-07-14T17:28:58.469Z,42.80
2017-07-14T17:31:27.901Z,42.10
2017-07-14T17:33:57.302Z,42.80
2017-07-14T17:36:26.707Z,43.40
2017-07-14T17:38:56.114Z,41.30
2017-07-14T17:41:25.559Z,43.50
2017-07-14T17:43:55.743Z,44.70
2017-07-14T17:46:25.176Z,44.80
2017-07-14T17:48:55.361Z,42.00
2017-07-14T17:51:24.760Z,41.90
2017-07-14T17:53:54.170Z,43.70
2017-07-14T17:56:23.569Z,42.80
2017-07-14T17:58:52.987Z,43.30
2017-07-14T18:01:22.390Z,42.90
2017-07-14T18:03:51.807Z,44.40
2017-07-14T18:06:21.216Z,44.60
2017-07-14T18:08:51.546Z,43.70
2017-07-14T18:11:21.693Z,43.80
2017-07-14T18:13:51.117Z,43.80
2017-07-14T18:16:20.519Z,44.50
2017-07-14T18:18:49.917Z,44.20
2017-07-14T18:21:19.342Z,44.00
2017-07-14T18:23:48.729Z,43.50
2017-07-14T18:26:18.169Z,44.30
2017-07-14T18:28:47.590Z,46.20
2017-07-14T18:31:17.842Z,45.70
2017-07-14T18:33:47.339Z,45.70
2017-07-14T18:36:16.735Z,45.30
2017-07-14T18:38:46.157Z,46.50
2017-07-14T18:41:15.588Z,46.70
2017-07-14T18:43:44.978Z,46.90
2017-07-14T18:46:14.397Z,46.70
2017-07-14T18:48:43.791Z,47.40
2017-07-14T18:51:13.217Z,48.10
2017-07-14T18:53:42.621Z,48.10
2017-07-14T18:56:12.039Z,48.70
2017-07-14T18:58:42.212Z,48.90
2017-07-14T19:01:11.627Z,48.90
2017-07-14T19:03:41.029Z,50.30
2017-07-14T19:06:10.439Z,50.20
2017-07-14T19:08:39.856Z,48.70
2017-07-14T19:11:10.037Z,51.00
2017-07-14T19:13:39.482Z,50.70
2017-07-14T19:16:08.885Z,51.00
2017-07-14T19:18:38.338Z,49.80
2017-07-14T19:21:07.738Z,49.90
2017-07-14T19:23:37.163Z,50.40
2017-07-14T19:26:06.567Z,51.70
2017-07-14T19:28:35.993Z,52.80
2017-07-14T19:31:05.404Z,54.50
2017-07-14T19:33:34.817Z,54.50
2017-07-14T19:36:04.995Z,56.60
2017-07-14T19:38:34.432Z,56.60
2017-07-14T19:41:03.862Z,55.60
2017-07-14T19:43:33.315Z,56.20
2017-07-14T19:46:02.717Z,56.10
2017-07-14T19:48:32.120Z,54.80
2017-07-14T19:51:01.548Z,55.20
2017-07-14T19:53:30.952Z,56.00
2017-07-14T19:56:00.372Z,56.40
2017-07-14T19:58:30.526Z,57.50
2017-07-14T20:00:59.958Z,57.40
2017-07-14T20:03:29.347Z,57.60
2017-07-14T20:05:58.768Z,58.30
2017-07-14T20:08:28.160Z,58.70
2017-07-14T20:10:57.591Z,59.70
2017-07-14T20:13:26.984Z,60.30
2017-07-14T20:15:56.417Z,59.70
2017-07-14T20:18:26.575Z,62.50
2017-07-14T20:20:56.004Z,62.50
2017-07-14T20:23:25.432Z,61.30
2017-07-14T20:25:54.861Z,62.90
2017-07-14T20:28:25.015Z,62.40
2017-07-14T20:30:54.431Z,62.40
2017-07-14T20:33:23.842Z,61.60
2017-07-14T20:35:53.046Z,62.10
2017-07-14T20:38:22.486Z,62.80
2017-07-14T20:40:52.670Z,65.10
2017-07-14T20:43:22.854Z,66.30
2017-07-14T20:45:52.268Z,66.40
2017-07-14T20:48:21.697Z,68.40
2017-07-14T20:50:51.851Z,65.40
2017-07-14T20:53:22.294Z,66.40
2017-07-14T20:55:51.698Z,66.40
2017-07-14T20:58:21.115Z,67.90
2017-07-14T21:00:50.568Z,67.20
2017-07-14T21:03:20.784Z,67.90
2017-07-14T21:05:50.934Z,67.70
2017-07-14T21:08:21.395Z,70.70
2017-07-14T21:10:50.818Z,70.00
2017-07-14T21:13:20.509Z,70.40
2017-07-14T21:15:50.188Z,70.30
2017-07-14T21:18:19.622Z,69.20
2017-07-14T21:20:49.045Z,68.30
2017-07-14T21:23:18.476Z,68.50
2017-07-14T21:25:48.636Z,70.30
2017-07-14T21:28:18.325Z,70.30
2017-07-14T21:30:48.770Z,69.30
2017-07-14T21:33:18.452Z,69.10
2017-07-14T21:35:47.892Z,69.60
2017-07-14T21:38:17.295Z,69.90
2017-07-14T21:40:46.773Z,67.70
2017-07-14T21:43:16.449Z,68.30
2017-07-14T21:45:46.644Z,68.50
2017-07-14T21:48:16.328Z,68.50
2017-07-14T21:50:46.794Z,69.40
2017-07-14T21:53:16.200Z,69.20
2017-07-14T21:55:45.939Z,69.20
2017-07-14T21:58:15.589Z,69.50
2017-07-14T22:00:45.339Z,69.90
2017-07-14T22:03:15.560Z,71.40
2017-07-14T22:05:45.293Z,71.40
2017-07-14T22:08:14.769Z,71.40
2017-07-14T22:10:44.438Z,71.90
2017-07-14T22:13:14.906Z,72.90
2017-07-14T22:15:44.567Z,72.90
2017-07-14T22:18:15.033Z,74.70
2017-07-14T22:20:44.716Z,74.70
2017-07-14T22:23:15.166Z,75.50
2017-07-14T22:25:44.826Z,75.50
2017-07-14T22:28:14.537Z,75.70
2017-07-14T22:30:44.205Z,75.80
2017-07-14T22:33:13.899Z,75.70
2017-07-14T22:35:43.551Z,76.20
2017-07-14T22:38:13.246Z,77.20
2017-07-14T22:40:42.921Z,78.00
2017-07-14T22:43:12.609Z,79.60
2017-07-14T22:45:43.042Z,79.80
2017-07-14T22:48:12.739Z,79.70
2017-07-14T22:50:42.407Z,79.50
2017-07-14T22:53:12.861Z,81.50
2017-07-14T22:55:42.539Z,81.50
2017-07-14T22:58:12.975Z,81.50
2017-07-14T23:00:42.667Z,81.50
2017-07-14T23:03:13.123Z,80.60
2017-07-14T23:05:42.626Z,80.50
2017-07-14T23:08:12.282Z,80.30
2017-07-14T23:10:41.960Z,80.80
2017-07-14T23:13:11.631Z,82.70
2017-07-14T23:15:41.336Z,84.20
2017-07-14T23:18:11.008Z,84.10
2017-07-14T23:20:40.705Z,84.30
2017-07-14T23:23:10.466Z,84.20
2017-07-14T23:25:40.161Z,84.50
2017-07-14T23:28:09.839Z,85.20
2017-07-14T23:30:39.792Z,85.50
2017-07-14T23:33:09.490Z,86.40
2017-07-14T23:35:39.277Z,87.60
2017-07-14T23:38:08.932Z,84.80
2017-07-14T23:40:38.636Z,86.60
2017-07-14T23:43:08.312Z,85.60
2017-07-14T23:45:38.032Z,85.00
2017-07-14T23:48:07.792Z,86.60
2017-07-14T23:50:38.265Z,84.80
2017-07-14T23:53:07.990Z,84.80
2017-07-14T23:55:37.675Z,86.50
2017-07-14T23:58:07.361Z,87.30
